Fish Lake, Utah
Current Conditions -  °F | °C
As of 7:55 AM on Monday 22 Dec 2014 (Local Time) from KDTA Reporting Station
Overcast Overcast  
Wind Chill: 40°   Ceiling: 1500
Heat Index: 40°   Visibility: 10mi
Dew Point: 40°   Wind: 3mph
Humidity: 100%   Direction: 190°S
Pressure: 29.98"   Gusts: NA
Location:  38.7083°N, 111.729°W
Report Text: KDTA 221455Z AUTO 19003KT 10SM OVC015 05/05 A2998 RMK AO1 T00450045
Loading
Personal Weather Stations






























Interactive Weather Map New forecast layout! Learn more

10-Day Weather Forecast

Advertisements
Track Severe Weather on mobile